createdAt,value
2019-02-20T00:01:43.978Z,97714.02
2019-02-20T00:04:11.468Z,97719.91
2019-02-20T00:06:38.878Z,97720.69
2019-02-20T00:09:06.997Z,97723.48
2019-02-20T00:11:34.428Z,97725.85
2019-02-20T00:14:01.871Z,97730.02
2019-02-20T00:16:29.280Z,97725.92
2019-02-20T00:18:56.702Z,97727.77
2019-02-20T00:21:24.102Z,97727.81
2019-02-20T00:23:51.565Z,97731.72
2019-02-20T00:26:20.214Z,97732.02
2019-02-20T00:28:47.601Z,97731.72
2019-02-20T00:31:15.022Z,97728.23
2019-02-20T00:33:42.435Z,97731.84
2019-02-20T00:36:09.947Z,97724.66
2019-02-20T00:38:37.504Z,97730.89
2019-02-20T00:41:04.955Z,97726.77
2019-02-20T00:43:32.824Z,97732.36
2019-02-20T00:46:02.726Z,97731.98
2019-02-20T00:48:36.864Z,97732.05
2019-02-20T00:51:04.803Z,97725.97
2019-02-20T00:53:34.314Z,97729.45
2019-02-20T00:56:01.745Z,97735.23
2019-02-20T00:58:29.164Z,97733.55
2019-02-20T01:00:56.554Z,97737.95
2019-02-20T01:03:24.669Z,97738.11
2019-02-20T01:05:52.081Z,97744.37
2019-02-20T01:08:19.665Z,97739.25
2019-02-20T01:10:47.081Z,97742.42
2019-02-20T01:13:14.492Z,97738.52
2019-02-20T01:15:41.925Z,97730.58
2019-02-20T01:18:09.399Z,97743.08
2019-02-20T01:20:36.880Z,97749.69
2019-02-20T01:23:04.274Z,97745.75
2019-02-20T01:25:31.712Z,97747.39
2019-02-20T01:27:59.094Z,97747.89
2019-02-20T01:30:26.534Z,97750.25
2019-02-20T01:32:53.961Z,97754.30
2019-02-20T01:35:21.430Z,97759.65
2019-02-20T01:37:48.989Z,97754.70
2019-02-20T01:40:16.383Z,97758.33
2019-02-20T01:42:43.871Z,97759.13
2019-02-20T01:45:11.326Z,97761.45
2019-02-20T01:47:38.732Z,97758.44
2019-02-20T01:50:06.231Z,97762.02
2019-02-20T01:52:33.639Z,97751.42
2019-02-20T01:55:01.101Z,97754.93
2019-02-20T01:57:28.559Z,97756.89
2019-02-20T01:59:56.145Z,97750.82
2019-02-20T02:02:23.599Z,97748.22
2019-02-20T02:04:51.407Z,97751.07
2019-02-20T02:07:18.812Z,97743.23
2019-02-20T02:09:46.283Z,97743.76
2019-02-20T02:12:13.712Z,97744.00
2019-02-20T02:14:41.139Z,97744.17
2019-02-20T02:17:08.568Z,97744.14
2019-02-20T02:19:35.987Z,97741.12
2019-02-20T02:22:03.414Z,97738.75
2019-02-20T02:24:30.839Z,97742.80
2019-02-20T02:26:58.726Z,97731.86
2019-02-20T02:29:26.110Z,97733.41
2019-02-20T02:31:53.541Z,97733.80
2019-02-20T02:34:21.947Z,97733.69
2019-02-20T02:36:49.508Z,97725.08
2019-02-20T02:39:17.013Z,97737.75
2019-02-20T02:41:44.910Z,97736.31
2019-02-20T02:44:11.941Z,97736.18
2019-02-20T02:46:39.395Z,97735.76
2019-02-20T02:49:07.040Z,97739.59
2019-02-20T02:51:34.421Z,97733.30
2019-02-20T02:54:01.983Z,97733.72
2019-02-20T02:56:29.385Z,97732.70
2019-02-20T02:58:56.800Z,97732.88
2019-02-20T03:01:24.245Z,97732.49
2019-02-20T03:03:51.648Z,97730.04
2019-02-20T03:06:19.059Z,97735.41
2019-02-20T03:08:46.471Z,97728.69
2019-02-20T03:11:13.865Z,97730.63
2019-02-20T03:13:41.433Z,97735.02
2019-02-20T03:16:08.819Z,97740.35
2019-02-20T03:18:36.346Z,97733.12
2019-02-20T03:21:03.781Z,97732.38
2019-02-20T03:23:39.799Z,97735.46
2019-02-20T03:25:58.624Z,97733.77
2019-02-20T03:28:26.048Z,97736.76
2019-02-20T03:30:53.467Z,97738.19
2019-02-20T03:33:21.047Z,97733.48
2019-02-20T03:35:48.454Z,97738.33
2019-02-20T03:38:15.873Z,97734.63
2019-02-20T03:40:43.271Z,97745.89
2019-02-20T03:43:10.715Z,97741.12
2019-02-20T03:45:38.229Z,97736.45
2019-02-20T03:48:05.632Z,97746.98
2019-02-20T03:50:33.027Z,97745.59
2019-02-20T03:53:00.718Z,97747.45
2019-02-20T03:55:28.122Z,97748.09
2019-02-20T03:57:55.524Z,97754.94
2019-02-20T04:00:22.960Z,97753.13
2019-02-20T04:02:50.403Z,97751.92
2019-02-20T04:05:17.846Z,97757.75
2019-02-20T04:07:45.249Z,97751.30
2019-02-20T04:10:13.020Z,97759.34
2019-02-20T04:12:40.616Z,97752.47
2019-02-20T04:15:08.054Z,97755.94
2019-02-20T04:17:35.537Z,97758.47
2019-02-20T04:20:02.928Z,97759.96
2019-02-20T04:22:30.343Z,97765.20
2019-02-20T04:24:57.757Z,97763.49
2019-02-20T04:27:25.162Z,97754.50
2019-02-20T04:29:52.645Z,97761.84
2019-02-20T04:32:20.069Z,97757.00
2019-02-20T04:34:47.490Z,97760.37
2019-02-20T04:37:14.990Z,97767.31
2019-02-20T04:39:43.244Z,97765.39
2019-02-20T04:42:11.100Z,97767.39
2019-02-20T04:44:38.513Z,97768.17
2019-02-20T04:47:06.050Z,97767.51
2019-02-20T04:49:33.436Z,97762.02
2019-02-20T04:52:01.099Z,97767.86
2019-02-20T04:54:28.499Z,97768.67
2019-02-20T04:56:56.079Z,97769.06
2019-02-20T04:59:23.468Z,97773.47
2019-02-20T05:01:50.884Z,97774.11
2019-02-20T05:04:18.315Z,97770.70
2019-02-20T05:06:45.717Z,97769.48
2019-02-20T05:09:13.111Z,97771.03
2019-02-20T05:11:40.525Z,97774.74
2019-02-20T05:14:07.961Z,97774.89
2019-02-20T05:16:35.385Z,97779.41
2019-02-20T05:19:02.994Z,97777.86
2019-02-20T05:21:30.396Z,97775.27
2019-02-20T05:23:57.780Z,97776.98
2019-02-20T05:26:25.219Z,97772.22
2019-02-20T05:28:52.615Z,97776.63
2019-02-20T05:31:20.087Z,97780.81
2019-02-20T05:33:47.529Z,97777.86
2019-02-20T05:36:14.954Z,97778.62
2019-02-20T05:38:42.671Z,97784.11
2019-02-20T05:41:10.113Z,97780.62
2019-02-20T05:43:37.548Z,97789.97
2019-02-20T05:46:04.988Z,97786.02
2019-02-20T05:48:32.429Z,97785.96
2019-02-20T05:50:59.823Z,97788.62
2019-02-20T05:53:27.299Z,97788.81
2019-02-20T05:55:54.717Z,97779.97
2019-02-20T05:58:22.142Z,97789.80
2019-02-20T06:00:49.973Z,97798.42
2019-02-20T06:03:17.355Z,97795.72
2019-02-20T06:05:44.801Z,97801.86
2019-02-20T06:08:12.206Z,97800.55
2019-02-20T06:10:39.601Z,97797.95
2019-02-20T06:13:07.253Z,97802.73
2019-02-20T06:15:34.648Z,97796.20
2019-02-20T06:18:02.058Z,97807.05
2019-02-20T06:20:29.456Z,97802.31
2019-02-20T06:22:56.866Z,97807.64
2019-02-20T06:25:24.273Z,97819.03
2019-02-20T06:27:51.694Z,97819.55
2019-02-20T06:30:19.106Z,97824.60
2019-02-20T06:32:46.511Z,97820.58
2019-02-20T06:35:13.964Z,97827.40
2019-02-20T06:37:41.367Z,97830.41
2019-02-20T06:40:08.785Z,97836.30
2019-02-20T06:42:36.945Z,97839.66
2019-02-20T06:45:05.032Z,97843.60
2019-02-20T06:47:32.475Z,97846.08
2019-02-20T06:50:01.194Z,97851.78
2019-02-20T06:52:27.397Z,97860.63
2019-02-20T06:54:54.806Z,97862.11
2019-02-20T06:57:22.612Z,97863.05
2019-02-20T06:59:50.174Z,97866.80
2019-02-20T07:02:17.582Z,97872.20
2019-02-20T07:07:46.573Z,97870.66
2019-02-20T07:10:19.823Z,97879.02
2019-02-20T07:12:48.140Z,97879.57
2019-02-20T07:15:35.162Z,97878.03
2019-02-20T07:18:05.200Z,97881.02
2019-02-20T07:20:42.028Z,97885.11
2019-02-20T07:26:24.866Z,97887.53
2019-02-20T07:29:05.907Z,97887.03
2019-02-20T07:31:33.314Z,97889.37
2019-02-20T07:34:00.863Z,97889.60
2019-02-20T07:36:28.315Z,97897.66
2019-02-20T07:38:55.949Z,97894.26
2019-02-20T07:41:23.510Z,97888.91
2019-02-20T07:43:50.923Z,97893.33
2019-02-20T07:46:18.366Z,97896.43
2019-02-20T07:48:45.800Z,97893.88
2019-02-20T07:51:14.867Z,97895.16
2019-02-20T07:53:40.770Z,97891.50
2019-02-20T07:56:08.280Z,97905.03
2019-02-20T07:58:35.667Z,97900.10
2019-02-20T08:01:03.123Z,97891.41
2019-02-20T08:03:30.550Z,97893.19
2019-02-20T08:05:58.001Z,97894.00
2019-02-20T08:08:25.465Z,97899.02
2019-02-20T08:10:52.881Z,97898.79
2019-02-20T08:13:20.361Z,97898.08
2019-02-20T08:15:47.763Z,97901.08
2019-02-20T08:18:15.240Z,97898.26
2019-02-20T08:20:42.862Z,97895.27
2019-02-20T08:23:10.250Z,97899.59
2019-02-20T08:25:37.773Z,97898.95
2019-02-20T08:28:05.220Z,97901.56
2019-02-20T08:30:32.798Z,97897.45
2019-02-20T08:33:00.202Z,97904.18
2019-02-20T08:35:27.635Z,97904.02
2019-02-20T08:37:55.083Z,97909.34
2019-02-20T08:40:22.492Z,97914.28
2019-02-20T08:42:49.915Z,97910.59
2019-02-20T08:45:17.318Z,97911.56
2019-02-20T08:47:44.782Z,97905.48
2019-02-20T08:50:13.022Z,97916.56
2019-02-20T08:52:40.443Z,97902.05
2019-02-20T08:55:07.865Z,97905.66
2019-02-20T08:57:34.805Z,97902.77
2019-02-20T09:00:02.262Z,97906.70
2019-02-20T09:02:29.987Z,97908.30
2019-02-20T09:04:57.003Z,97895.97
2019-02-20T09:07:24.549Z,97904.48
2019-02-20T09:09:51.964Z,97905.91
2019-02-20T09:12:19.454Z,97902.33
2019-02-20T09:14:46.992Z,97904.61
2019-02-20T09:17:14.512Z,97903.04
2019-02-20T09:19:42.646Z,97899.83
2019-02-20T09:22:10.050Z,97906.19
2019-02-20T09:24:37.465Z,97900.92
2019-02-20T09:27:04.898Z,97902.32
2019-02-20T09:29:32.351Z,97901.71
2019-02-20T09:31:59.779Z,97900.20
2019-02-20T09:34:27.216Z,97898.67
2019-02-20T09:36:54.653Z,97902.98
2019-02-20T09:39:33.085Z,97904.48
2019-02-20T09:42:00.546Z,97900.89
2019-02-20T09:44:28.418Z,97895.59
2019-02-20T09:46:55.829Z,97897.97
2019-02-20T09:49:23.287Z,97906.58
2019-02-20T09:51:50.755Z,97901.55
2019-02-20T09:54:18.219Z,97904.23
2019-02-20T09:56:45.700Z,97900.62
2019-02-20T09:59:13.102Z,97901.92
2019-02-20T10:01:40.601Z,97893.37
2019-02-20T10:04:08.016Z,97902.02
2019-02-20T10:06:35.439Z,97901.48
2019-02-20T10:09:02.882Z,97902.09
2019-02-20T10:11:30.302Z,97902.56
2019-02-20T10:13:57.717Z,97906.41
2019-02-20T10:16:25.122Z,97906.90
2019-02-20T10:18:52.529Z,97914.38
2019-02-20T10:21:19.951Z,97914.25
2019-02-20T10:23:47.501Z,97914.13
2019-02-20T10:26:15.619Z,97915.68
2019-02-20T10:28:43.039Z,97906.31
2019-02-20T10:31:10.461Z,97911.62
2019-02-20T10:33:37.919Z,97907.05
2019-02-20T10:36:05.325Z,97914.13
2019-02-20T10:38:32.955Z,97909.37
2019-02-20T10:41:00.430Z,97908.64
2019-02-20T10:43:27.885Z,97904.06
2019-02-20T10:45:55.293Z,97900.87
2019-02-20T10:48:22.704Z,97908.47
2019-02-20T10:50:50.114Z,97906.10
2019-02-20T10:53:18.452Z,97903.16
2019-02-20T10:55:45.415Z,97902.38
2019-02-20T10:58:12.359Z,97903.13
2019-02-20T11:00:39.456Z,97899.66
2019-02-20T11:03:06.446Z,97902.86
2019-02-20T11:05:33.505Z,97891.92
2019-02-20T11:08:00.356Z,97890.65
2019-02-20T11:10:27.323Z,97902.74
2019-02-20T11:12:54.400Z,97899.17
2019-02-20T11:15:21.436Z,97895.70
2019-02-20T11:17:48.880Z,97894.98
2019-02-20T11:20:16.454Z,97891.32
2019-02-20T11:22:43.457Z,97890.40
2019-02-20T11:25:10.854Z,97888.45
2019-02-20T11:27:39.471Z,97888.63
2019-02-20T11:30:08.175Z,97887.86
2019-02-20T11:32:35.611Z,97893.75
2019-02-20T11:35:02.835Z,97885.25
2019-02-20T11:37:29.792Z,97876.77
2019-02-20T11:39:56.736Z,97883.05
2019-02-20T11:42:23.674Z,97876.04
2019-02-20T11:44:51.090Z,97875.52
2019-02-20T11:47:18.915Z,97872.77
2019-02-20T11:49:46.351Z,97875.63
2019-02-20T11:52:13.774Z,97871.98
2019-02-20T11:54:41.213Z,97868.16
2019-02-20T11:57:08.671Z,97862.45
2019-02-20T11:59:35.965Z,97857.00
2019-02-20T12:02:03.440Z,97860.13
2019-02-20T12:04:31.963Z,97850.39
2019-02-20T12:06:59.399Z,97847.41
2019-02-20T12:09:26.855Z,97850.09
2019-02-20T12:11:54.275Z,97847.27
2019-02-20T12:14:24.287Z,97846.00
2019-02-20T12:16:50.323Z,97846.09
2019-02-20T12:19:17.738Z,97840.77
2019-02-20T12:21:45.140Z,97844.45
2019-02-20T12:24:12.648Z,97842.05
2019-02-20T12:26:40.055Z,97844.84
2019-02-20T12:29:07.500Z,97841.13
2019-02-20T12:31:34.911Z,97842.98
2019-02-20T12:34:02.673Z,97843.11
2019-02-20T12:36:30.079Z,97832.84
2019-02-20T12:38:57.545Z,97835.15
2019-02-20T12:41:25.020Z,97831.51
2019-02-20T12:43:52.459Z,97832.58
2019-02-20T12:46:19.965Z,97837.14
2019-02-20T12:48:47.384Z,97835.56
2019-02-20T12:51:14.831Z,97829.87
2019-02-20T12:53:43.614Z,97827.11
2019-02-20T12:56:10.303Z,97832.73
2019-02-20T12:58:38.387Z,97827.72
2019-02-20T13:01:04.744Z,97829.40
2019-02-20T13:05:59.572Z,97838.63
2019-02-20T13:08:27.011Z,97836.72
2019-02-20T13:10:54.501Z,97831.44
2019-02-20T13:13:21.927Z,97831.27
2019-02-20T13:15:49.384Z,97828.64
2019-02-20T13:18:16.887Z,97828.92
2019-02-20T13:20:44.237Z,97834.75
2019-02-20T13:23:11.662Z,97826.66
2019-02-20T13:25:39.198Z,97833.44
2019-02-20T13:30:40.501Z,97824.77
2019-02-20T13:33:08.069Z,97825.16
2019-02-20T13:35:35.648Z,97820.48
2019-02-20T13:38:03.206Z,97813.23
2019-02-20T13:40:30.612Z,97817.01
2019-02-20T13:42:58.048Z,97807.15
2019-02-20T13:45:25.648Z,97813.53
2019-02-20T13:47:53.082Z,97811.30
2019-02-20T13:50:20.572Z,97809.19
2019-02-20T13:52:52.221Z,97808.16
2019-02-20T13:55:15.457Z,97806.61
2019-02-20T13:57:42.388Z,97798.73
2019-02-20T14:00:09.807Z,97796.02
2019-02-20T14:02:37.210Z,97797.92
2019-02-20T14:05:05.501Z,97799.27
2019-02-20T14:07:32.998Z,97805.68
2019-02-20T14:10:00.413Z,97794.59
2019-02-20T14:12:27.434Z,97794.84
2019-02-20T14:14:54.387Z,97795.64
2019-02-20T14:17:26.649Z,97794.34
2019-02-20T14:19:48.419Z,97794.45
2019-02-20T14:22:15.468Z,97795.35
2019-02-20T14:24:42.445Z,97791.11
2019-02-20T14:27:11.077Z,97793.17
2019-02-20T14:29:37.049Z,97792.79
2019-02-20T14:32:04.066Z,97802.22
2019-02-20T14:34:31.006Z,97795.05
2019-02-20T14:36:57.950Z,97788.13
2019-02-20T14:39:24.952Z,97797.20
2019-02-20T14:41:51.949Z,97795.31
2019-02-20T14:44:18.893Z,97789.17
2019-02-20T14:46:45.865Z,97793.23
2019-02-20T14:49:13.499Z,97791.79
2019-02-20T14:51:40.957Z,97790.48
2019-02-20T14:54:08.033Z,97795.64
2019-02-20T14:56:34.989Z,97790.01
2019-02-20T14:59:01.936Z,97795.86
2019-02-20T15:01:28.899Z,97790.33
2019-02-20T15:03:55.900Z,97786.86
2019-02-20T15:06:23.182Z,97797.80
2019-02-20T15:08:50.634Z,97796.67
2019-02-20T15:11:18.063Z,97791.41
2019-02-20T15:13:45.480Z,97787.48
2019-02-20T15:16:12.911Z,97796.28
2019-02-20T15:18:40.034Z,97790.99
2019-02-20T15:21:07.477Z,97788.59
2019-02-20T15:23:34.641Z,97786.15
2019-02-20T15:26:01.587Z,97787.22
2019-02-20T15:28:28.538Z,97798.73
2019-02-20T15:30:55.496Z,97786.33
2019-02-20T15:33:24.012Z,97790.91
2019-02-20T15:35:49.837Z,97785.55
2019-02-20T15:38:17.046Z,97788.80
2019-02-20T15:40:44.046Z,97794.20
2019-02-20T15:43:11.083Z,97795.77
2019-02-20T15:45:38.083Z,97793.03
2019-02-20T15:48:05.546Z,97793.52
2019-02-20T15:50:32.953Z,97787.86
2019-02-20T15:53:00.382Z,97793.52
2019-02-20T15:55:27.992Z,97794.30
2019-02-20T15:57:55.408Z,97784.87
2019-02-20T16:00:22.933Z,97785.06
2019-02-20T16:02:50.363Z,97785.75
2019-02-20T16:05:17.820Z,97789.76
2019-02-20T16:07:45.303Z,97794.36
2019-02-20T16:10:12.501Z,97793.80
2019-02-20T16:12:39.988Z,97789.94
2019-02-20T16:15:07.085Z,97793.45
2019-02-20T16:17:34.766Z,97795.73
2019-02-20T16:20:02.089Z,97794.19
2019-02-20T16:22:29.603Z,97795.14
2019-02-20T16:24:57.090Z,97801.16
2019-02-20T16:27:24.063Z,97796.34
2019-02-20T16:29:51.525Z,97799.04
2019-02-20T16:32:19.095Z,97799.23
2019-02-20T16:34:46.912Z,97815.14
2019-02-20T16:37:14.316Z,97814.07
2019-02-20T16:39:41.798Z,97818.94
2019-02-20T16:42:09.317Z,97816.66
2019-02-20T16:44:36.751Z,97822.28
2019-02-20T16:47:04.159Z,97826.66
2019-02-20T16:49:31.642Z,97830.36
2019-02-20T16:51:59.123Z,97833.38
2019-02-20T16:54:27.526Z,97837.02
2019-02-20T16:56:54.996Z,97841.27
2019-02-20T16:59:22.508Z,97838.00
2019-02-20T17:01:50.007Z,97844.03
2019-02-20T17:04:17.435Z,97838.91
2019-02-20T17:06:44.886Z,97846.66
2019-02-20T17:09:12.539Z,97847.66
2019-02-20T17:11:40.091Z,97857.78
2019-02-20T17:14:07.561Z,97855.22
2019-02-20T17:16:35.024Z,97861.45
2019-02-20T17:19:02.463Z,97860.78
2019-02-20T17:21:29.903Z,97859.19
2019-02-20T17:23:57.325Z,97865.45
2019-02-20T17:26:25.191Z,97867.00
2019-02-20T17:28:52.612Z,97872.54
2019-02-20T17:31:20.495Z,97873.81
2019-02-20T17:33:48.044Z,97873.25
2019-02-20T17:36:15.485Z,97880.07
2019-02-20T17:38:43.079Z,97884.92
2019-02-20T17:41:10.496Z,97888.37
2019-02-20T17:43:38.051Z,97889.68
2019-02-20T17:46:05.532Z,97890.53
2019-02-20T17:48:32.966Z,97893.02
2019-02-20T17:51:00.435Z,97897.20
2019-02-20T17:53:27.903Z,97901.80
2019-02-20T17:55:55.312Z,97908.73
2019-02-20T17:58:22.755Z,97909.59
2019-02-20T18:00:50.304Z,97913.33
2019-02-20T18:03:17.868Z,97908.50
2019-02-20T18:05:45.393Z,97914.41
2019-02-20T18:08:12.842Z,97913.42
2019-02-20T18:10:40.371Z,97913.52
2019-02-20T18:13:07.852Z,97921.29
2019-02-20T18:15:35.363Z,97918.33
2019-02-20T18:18:02.821Z,97922.74
2019-02-20T18:20:30.305Z,97923.33
2019-02-20T18:22:57.745Z,97918.77
2019-02-20T18:25:25.236Z,97929.91
2019-02-20T18:27:52.825Z,97927.77
2019-02-20T18:30:20.397Z,97933.70
2019-02-20T18:32:47.835Z,97937.71
2019-02-20T18:35:16.093Z,97943.08
2019-02-20T18:37:43.587Z,97947.66
2019-02-20T18:40:11.119Z,97941.04
2019-02-20T18:42:38.655Z,97945.11
2019-02-20T18:45:06.145Z,97944.57
2019-02-20T18:47:33.704Z,97945.70
2019-02-20T18:50:01.187Z,97948.13
2019-02-20T18:52:31.893Z,97938.39
2019-02-20T18:55:05.629Z,97948.81
2019-02-20T18:57:26.766Z,97959.95
2019-02-20T18:59:54.190Z,97952.08
2019-02-20T19:02:21.696Z,97961.89
2019-02-20T19:04:49.188Z,97962.45
2019-02-20T19:07:16.596Z,97968.13
2019-02-20T19:09:44.168Z,97965.02
2019-02-20T19:12:18.454Z,97972.41
2019-02-20T19:14:46.098Z,97967.70
2019-02-20T19:17:24.491Z,97970.48
2019-02-20T19:23:20.277Z,97972.45
2019-02-20T19:26:09.239Z,97978.61
2019-02-20T19:28:44.312Z,97974.39
2019-02-20T19:31:30.195Z,97975.80
2019-02-20T19:34:04.253Z,97977.70
2019-02-20T19:36:51.647Z,97978.44
2019-02-20T19:39:20.931Z,97974.94
2019-02-20T19:42:00.312Z,97975.06
2019-02-20T19:44:31.793Z,97979.93
2019-02-20T19:47:07.503Z,97983.97
2019-02-20T19:49:50.760Z,97983.48
2019-02-20T19:52:27.018Z,97988.36
2019-02-20T19:55:01.827Z,97993.39
2019-02-20T19:57:59.003Z,97997.48
2019-02-20T20:00:30.863Z,98001.58
2019-02-20T20:03:06.559Z,97998.53
2019-02-20T20:05:54.498Z,98000.31
2019-02-20T20:08:32.935Z,98001.42
2019-02-20T20:14:04.584Z,98015.88
2019-02-20T20:16:33.801Z,98014.61
2019-02-20T20:19:13.734Z,98015.55
2019-02-20T20:21:47.367Z,98024.06
2019-02-20T20:27:28.586Z,98033.36
2019-02-20T20:30:09.762Z,98031.07
2019-02-20T20:32:56.025Z,98034.59
2019-02-20T20:38:31.991Z,98039.23
2019-02-20T20:41:05.075Z,98031.97
2019-02-20T20:46:46.268Z,98040.98
2019-02-20T20:49:19.043Z,98031.75
2019-02-20T20:55:00.788Z,98037.58
2019-02-20T20:57:33.121Z,98037.14
2019-02-20T21:00:12.185Z,98036.20
2019-02-20T21:02:40.199Z,98035.84
2019-02-20T21:05:19.401Z,98040.56
2019-02-20T21:07:51.397Z,98039.52
2019-02-20T21:10:34.322Z,98036.47
2019-02-20T21:13:24.251Z,98030.11
2019-02-20T21:18:58.826Z,98040.67
2019-02-20T21:24:44.707Z,98040.95
2019-02-20T21:30:20.634Z,98044.59
2019-02-20T21:32:52.650Z,98044.59
2019-02-20T21:35:20.295Z,98044.22
2019-02-20T21:37:56.191Z,98042.48
2019-02-20T21:40:27.234Z,98049.47
2019-02-20T21:45:56.868Z,98052.38
2019-02-20T21:48:29.977Z,98052.59
2019-02-20T21:51:03.026Z,98053.63
2019-02-20T21:53:34.777Z,98062.37
2019-02-20T21:56:02.631Z,98064.31
2019-02-20T21:58:33.231Z,98062.70
2019-02-20T22:01:23.859Z,98059.77
2019-02-20T22:07:05.951Z,98063.25
2019-02-20T22:09:34.143Z,98064.97
2019-02-20T22:12:16.922Z,98061.57
2019-02-20T22:14:47.330Z,98060.73
2019-02-20T22:17:19.522Z,98068.36
2019-02-20T22:23:05.296Z,98065.33
2019-02-20T22:25:44.204Z,98068.69
2019-02-20T22:31:35.896Z,98074.67
2019-02-20T22:34:16.603Z,98080.69
2019-02-20T22:36:55.846Z,98078.11
2019-02-20T22:39:46.705Z,98081.69
2019-02-20T22:42:38.578Z,98087.91
2019-02-20T22:45:19.594Z,98082.38
2019-02-20T22:50:57.827Z,98093.61
2019-02-20T22:56:43.317Z,98099.27
2019-02-20T22:59:17.461Z,98105.41
2019-02-20T23:04:40.561Z,98102.64
2019-02-20T23:07:24.752Z,98105.34
2019-02-20T23:09:58.709Z,98109.72
2019-02-20T23:12:27.839Z,98109.41
2019-02-20T23:14:57.857Z,98114.32
2019-02-20T23:17:27.176Z,98109.72
2019-02-20T23:19:52.898Z,98119.22
2019-02-20T23:22:20.288Z,98117.41
2019-02-20T23:24:47.694Z,98111.58
2019-02-20T23:27:15.129Z,98118.91
2019-02-20T23:29:42.724Z,98117.09
2019-02-20T23:32:10.108Z,98121.22
2019-02-20T23:34:37.527Z,98121.44
2019-02-20T23:37:04.935Z,98131.61
2019-02-20T23:39:32.337Z,98132.63
2019-02-20T23:41:59.748Z,98125.66
2019-02-20T23:44:27.183Z,98130.42
2019-02-20T23:46:54.717Z,98131.58
2019-02-20T23:49:22.190Z,98130.03
2019-02-20T23:51:49.651Z,98134.50
2019-02-20T23:54:17.096Z,98145.30
2019-02-20T23:56:44.515Z,98139.64
2019-02-20T23:59:13.794Z,98140.06
